• Join FlightAware (Why Join?)
  • Login
  • US Flag 
12:31PM EDT


 

Airport Tracker/Info


-or-


 

Live Flight TrackerFlight Track Log ✈ PDT4236 ✈ 15-May-2013 ✈ KHTS - KCLT

Flight Track Log - Related Links

Times and Time Zones

All times are in EDT time to prevent confusion due to time zone crossing. See the PDT4236 flight status page for this flight to view local times or setup timezone preferences in your user account.

Time Position Orientation Groundspeed Altitude Reporting Facility
EDT Latitude Longitude Course Direction KTS MPH feet Rate Location/Type
04:28PM 38.2057 -82.5127 174° South  Level FlightAware Approximate
04:28PM 38.3389 -82.6275 177° South 170 196 4,900  Level Indianapolis Center
04:29PM 38.1516 -82.5050 174° South  Level FlightAware Approximate
04:29PM 38.2953 -82.6111 164° South 165 190 6,400  Level Indianapolis Center
04:30PM 38.0977 -82.4946 167° South  Level FlightAware Approximate
04:30PM 38.2411 -82.6028 173° South 167 192 8,300  Level Indianapolis Center
04:31PM 38.0445 -82.4794 167° South  Level FlightAware Approximate
04:31PM 38.1917 -82.5892 168° South 179 206 9,800  Level Indianapolis Center
04:32PM 37.9807 -82.4661 171° South  Level FlightAware Approximate
04:32PM 38.1422 -82.5764 169° South 180 207 11,300  Level Indianapolis Center
04:33PM 38.0914 -82.5633 169° South 184 212 12,700 1,200 Climbing Indianapolis Center
04:34PM 38.0356 -82.5489 168° South 201 231 13,800 1,020 Climbing Indianapolis Center
04:35PM 37.9778 -82.5325 167° South 211 243 14,900 1,080 Climbing Indianapolis Center
04:36PM 37.9106 -82.5144 168° South 211 243 16,100 960 Climbing Indianapolis Center
04:37PM 37.8519 -82.5000 169° South 214 246 16,900 420 Climbing Indianapolis Center
04:38PM 37.7872 -82.4822 168° South 235 270 17,000  Climbing Indianapolis Center
04:39PM 37.7156 -82.4636 168° South 258 297 17,000  Level Indianapolis Center
04:40PM 37.6442 -82.4433 167° South 261 300 17,000  Level Indianapolis Center
04:41PM 37.5597 -82.4228 169° South 264 304 17,000  Level Indianapolis Center
04:42PM 37.4875 -82.4042 168° South 264 304 17,000  Level Indianapolis Center
04:43PM 37.4142 -82.3847 168° South 266 306 17,000  Level Indianapolis Center
04:44PM 37.3414 -82.3658 168° South 264 304 17,000  Level Indianapolis Center
04:45PM 37.2811 -82.3486 167° South 258 297 17,000 -60 Level Atlanta Center
04:46PM 37.2078 -82.3344 171° South 258 297 16,900 -60 Descending Atlanta Center
04:47PM 37.1389 -82.3125 166° South 258 297 16,900  Level Atlanta Center
04:48PM 37.0678 -82.2958 169° South 258 297 16,900  Level Atlanta Center
04:49PM 36.9986 -82.2767 168° South 258 297 16,900  Level Atlanta Center
04:50PM 36.9275 -82.2575 168° South 258 297 16,900  Level Atlanta Center
04:51PM 36.8583 -82.2383 167° South 258 297 16,900  Level Atlanta Center
04:52PM 36.7872 -82.2217 169° South 258 297 16,900  Level Atlanta Center
04:53PM 36.7097 -82.2003 168° South 258 297 16,900 -660 Level Atlanta Center
04:54PM 36.6344 -82.1839 170° South 258 297 15,600 -1,200 Descending Atlanta Center
04:55PM 36.5633 -82.1647 168° South 258 297 14,500 -1,140 Descending Atlanta Center
04:56PM 36.4900 -82.1458 168° South 258 297 13,400 -780 Descending Atlanta Center
04:57PM 36.4167 -82.1219 165° South 268 308 13,000 -240 Descending Atlanta Center
04:58PM 36.3492 -82.0744 150° Southeast 274 315 13,000  Level Atlanta Center
04:59PM 36.2797 -82.0297 153° Southeast 280 322 13,000 -120 Level Atlanta Center
05:00PM 36.2183 -81.9875 151° Southeast 280 322 12,800 -600 Descending Atlanta Center
05:01PM 36.1425 -81.9381 152° Southeast 286 329 11,800 -900 Descending Atlanta Center
05:02PM 36.0728 -81.8911 151° Southeast 286 329 11,000 -420 Descending Atlanta Center
05:03PM 36.0053 -81.8492 153° Southeast 286 329 11,000 -480 Level Atlanta Center
05:04PM 35.9378 -81.8050 152° Southeast 280 322 10,100 -900 Descending Atlanta Center
05:05PM 35.8725 -81.7631 152° Southeast 275 316 9,200 -600 Descending Atlanta Center
05:06PM 35.8089 -81.7214 152° Southeast 265 305 9,000 -120 Descending Atlanta Center
05:07PM 35.7583 -81.6869 151° Southeast 244 281 9,000  Level Atlanta Center
05:08PM 35.6928 -81.6481 154° Southeast 254 292 9,000  Level Atlanta Center
05:09PM 35.6317 -81.6064 151° Southeast 260 299 9,000  Level Atlanta Center
05:10PM 35.5697 -81.5342 137° Southeast 258 297 9,000 -360 Level Atlanta Center
05:11PM 35.5283 -81.4511 121° Southeast 272 313 8,300 -900 Descending Atlanta Center
05:12PM 35.5097 -81.3600 104° East 277 319 7,300 -660 Descending Atlanta Center
05:13PM 35.4931 -81.2686 103° East 277 319 7,000 -180 Descending Atlanta Center
05:14PM 35.4764 -81.1775 103° East 277 319 7,000 -720 Level Atlanta Center
05:15PM 35.4592 -81.0761 102° East 277 319 5,500 -960 Descending Atlanta Center
05:16PM 35.4283 -81.0083 119° Southeast 227 261 5,000 -540 Descending Atlanta Center
05:17PM 35.3756 -80.9847 160° South 199 229 4,500 -540 Descending Atlanta Center